sensor_id;sensor_type;location;lat;lon;timestamp;P1;durP1;ratioP1;P2;durP2;ratioP2
15645;SDS011;7922;43.622;1.476;2024-02-21T00:00:18;15.93;;;13.33;;
15645;SDS011;7922;43.622;1.476;2024-02-21T00:02:43;17.83;;;13.87;;
15645;SDS011;7922;43.622;1.476;2024-02-21T00:05:08;17.03;;;12.53;;
15645;SDS011;7922;43.622;1.476;2024-02-21T00:07:34;14.83;;;12.97;;
15645;SDS011;7922;43.622;1.476;2024-02-21T00:09:59;15.10;;;12.87;;
15645;SDS011;7922;43.622;1.476;2024-02-21T00:12:24;17.37;;;12.93;;
15645;SDS011;7922;43.622;1.476;2024-02-21T00:14:50;17.50;;;13.80;;
15645;SDS011;7922;43.622;1.476;2024-02-21T00:17:15;17.67;;;13.37;;
15645;SDS011;7922;43.622;1.476;2024-02-21T00:19:40;16.80;;;13.43;;
15645;SDS011;7922;43.622;1.476;2024-02-21T00:22:05;17.80;;;12.80;;
15645;SDS011;7922;43.622;1.476;2024-02-21T00:24:31;16.90;;;12.93;;
15645;SDS011;7922;43.622;1.476;2024-02-21T00:26:56;15.83;;;12.73;;
15645;SDS011;7922;43.622;1.476;2024-02-21T00:29:21;15.53;;;12.63;;
15645;SDS011;7922;43.622;1.476;2024-02-21T00:31:47;15.70;;;12.60;;
15645;SDS011;7922;43.622;1.476;2024-02-21T00:34:14;16.00;;;12.97;;
15645;SDS011;7922;43.622;1.476;2024-02-21T00:36:39;19.00;;;13.20;;
15645;SDS011;7922;43.622;1.476;2024-02-21T00:39:04;18.97;;;13.53;;
15645;SDS011;7922;43.622;1.476;2024-02-21T00:41:29;17.80;;;12.50;;
15645;SDS011;7922;43.622;1.476;2024-02-21T00:43:55;14.20;;;12.33;;
15645;SDS011;7922;43.622;1.476;2024-02-21T00:46:20;15.03;;;12.33;;
15645;SDS011;7922;43.622;1.476;2024-02-21T00:48:45;14.67;;;12.10;;
15645;SDS011;7922;43.622;1.476;2024-02-21T00:51:11;14.67;;;12.10;;
15645;SDS011;7922;43.622;1.476;2024-02-21T00:53:36;14.93;;;13.03;;
15645;SDS011;7922;43.622;1.476;2024-02-21T00:56:01;15.90;;;13.00;;
15645;SDS011;7922;43.622;1.476;2024-02-21T00:58:26;18.00;;;13.80;;
15645;SDS011;7922;43.622;1.476;2024-02-21T01:00:52;14.57;;;12.57;;
15645;SDS011;7922;43.622;1.476;2024-02-21T01:03:17;14.57;;;13.03;;
15645;SDS011;7922;43.622;1.476;2024-02-21T01:05:42;16.13;;;13.27;;
15645;SDS011;7922;43.622;1.476;2024-02-21T01:08:07;14.27;;;12.33;;
15645;SDS011;7922;43.622;1.476;2024-02-21T01:10:33;14.73;;;12.40;;
15645;SDS011;7922;43.622;1.476;2024-02-21T01:12:58;13.50;;;11.33;;
15645;SDS011;7922;43.622;1.476;2024-02-21T01:15:23;15.33;;;12.60;;
15645;SDS011;7922;43.622;1.476;2024-02-21T01:17:49;14.83;;;11.37;;
15645;SDS011;7922;43.622;1.476;2024-02-21T01:20:14;14.90;;;12.77;;
15645;SDS011;7922;43.622;1.476;2024-02-21T01:22:39;15.03;;;12.17;;
15645;SDS011;7922;43.622;1.476;2024-02-21T01:25:05;14.00;;;11.73;;
15645;SDS011;7922;43.622;1.476;2024-02-21T01:27:30;15.37;;;11.57;;
15645;SDS011;7922;43.622;1.476;2024-02-21T01:29:56;18.30;;;12.93;;
15645;SDS011;7922;43.622;1.476;2024-02-21T01:32:21;15.80;;;11.80;;
15645;SDS011;7922;43.622;1.476;2024-02-21T01:34:47;17.47;;;12.00;;
15645;SDS011;7922;43.622;1.476;2024-02-21T01:37:12;17.77;;;12.17;;
15645;SDS011;7922;43.622;1.476;2024-02-21T01:39:37;15.10;;;12.47;;
15645;SDS011;7922;43.622;1.476;2024-02-21T01:42:03;14.23;;;12.07;;
15645;SDS011;7922;43.622;1.476;2024-02-21T01:44:28;15.50;;;12.40;;
15645;SDS011;7922;43.622;1.476;2024-02-21T01:46:53;15.93;;;11.97;;
15645;SDS011;7922;43.622;1.476;2024-02-21T01:49:19;13.67;;;12.00;;
15645;SDS011;7922;43.622;1.476;2024-02-21T01:51:45;16.27;;;12.67;;
15645;SDS011;7922;43.622;1.476;2024-02-21T01:54:12;13.60;;;11.20;;
15645;SDS011;7922;43.622;1.476;2024-02-21T01:56:39;13.77;;;11.43;;
15645;SDS011;7922;43.622;1.476;2024-02-21T01:59:05;13.17;;;11.80;;
15645;SDS011;7922;43.622;1.476;2024-02-21T02:01:30;14.80;;;11.23;;
15645;SDS011;7922;43.622;1.476;2024-02-21T02:03:55;13.47;;;11.80;;
15645;SDS011;7922;43.622;1.476;2024-02-21T02:06:22;13.00;;;11.30;;
15645;SDS011;7922;43.622;1.476;2024-02-21T02:08:47;12.50;;;11.07;;
15645;SDS011;7922;43.622;1.476;2024-02-21T02:11:15;13.80;;;11.00;;
15645;SDS011;7922;43.622;1.476;2024-02-21T02:13:41;12.27;;;10.97;;
15645;SDS011;7922;43.622;1.476;2024-02-21T02:16:07;14.00;;;11.87;;
15645;SDS011;7922;43.622;1.476;2024-02-21T02:18:32;13.07;;;10.60;;
15645;SDS011;7922;43.622;1.476;2024-02-21T02:20:57;15.40;;;11.30;;
15645;SDS011;7922;43.622;1.476;2024-02-21T02:23:32;13.23;;;11.17;;
15645;SDS011;7922;43.622;1.476;2024-02-21T02:25:58;11.87;;;10.40;;
15645;SDS011;7922;43.622;1.476;2024-02-21T02:28:24;15.53;;;10.77;;
15645;SDS011;7922;43.622;1.476;2024-02-21T02:30:50;13.30;;;10.63;;
15645;SDS011;7922;43.622;1.476;2024-02-21T02:33:15;11.10;;;10.00;;
15645;SDS011;7922;43.622;1.476;2024-02-21T02:35:41;14.00;;;10.87;;
15645;SDS011;7922;43.622;1.476;2024-02-21T02:38:06;14.57;;;11.10;;
15645;SDS011;7922;43.622;1.476;2024-02-21T02:40:33;12.77;;;11.43;;
15645;SDS011;7922;43.622;1.476;2024-02-21T02:42:58;12.60;;;11.30;;
15645;SDS011;7922;43.622;1.476;2024-02-21T02:45:24;12.47;;;10.73;;
15645;SDS011;7922;43.622;1.476;2024-02-21T02:47:49;13.93;;;10.50;;
15645;SDS011;7922;43.622;1.476;2024-02-21T02:50:15;12.33;;;11.03;;
15645;SDS011;7922;43.622;1.476;2024-02-21T02:52:40;12.50;;;10.07;;
15645;SDS011;7922;43.622;1.476;2024-02-21T02:55:06;12.50;;;10.00;;
15645;SDS011;7922;43.622;1.476;2024-02-21T02:57:31;13.07;;;10.47;;
15645;SDS011;7922;43.622;1.476;2024-02-21T02:59:57;12.83;;;10.03;;
15645;SDS011;7922;43.622;1.476;2024-02-21T03:02:22;12.83;;;10.20;;
15645;SDS011;7922;43.622;1.476;2024-02-21T03:04:48;14.07;;;11.20;;
15645;SDS011;7922;43.622;1.476;2024-02-21T03:07:14;13.33;;;10.03;;
15645;SDS011;7922;43.622;1.476;2024-02-21T03:09:39;17.13;;;10.63;;
15645;SDS011;7922;43.622;1.476;2024-02-21T03:12:05;13.53;;;10.37;;
15645;SDS011;7922;43.622;1.476;2024-02-21T03:14:31;12.63;;;9.43;;
15645;SDS011;7922;43.622;1.476;2024-02-21T03:17:00;13.10;;;10.47;;
15645;SDS011;7922;43.622;1.476;2024-02-21T03:19:25;13.50;;;9.93;;
15645;SDS011;7922;43.622;1.476;2024-02-21T03:21:51;12.23;;;9.47;;
15645;SDS011;7922;43.622;1.476;2024-02-21T03:24:17;11.03;;;9.73;;
15645;SDS011;7922;43.622;1.476;2024-02-21T03:26:43;11.67;;;10.47;;
15645;SDS011;7922;43.622;1.476;2024-02-21T03:29:08;12.10;;;10.87;;
15645;SDS011;7922;43.622;1.476;2024-02-21T03:31:34;11.77;;;9.53;;
15645;SDS011;7922;43.622;1.476;2024-02-21T03:33:59;13.37;;;10.00;;
15645;SDS011;7922;43.622;1.476;2024-02-21T03:36:25;15.47;;;10.63;;
15645;SDS011;7922;43.622;1.476;2024-02-21T03:38:50;13.00;;;9.93;;
15645;SDS011;7922;43.622;1.476;2024-02-21T03:41:15;13.17;;;9.80;;
15645;SDS011;7922;43.622;1.476;2024-02-21T03:43:40;13.63;;;9.53;;
15645;SDS011;7922;43.622;1.476;2024-02-21T03:46:06;14.63;;;9.93;;
15645;SDS011;7922;43.622;1.476;2024-02-21T03:48:31;15.10;;;9.40;;
15645;SDS011;7922;43.622;1.476;2024-02-21T03:50:57;13.13;;;9.40;;
15645;SDS011;7922;43.622;1.476;2024-02-21T03:53:22;11.13;;;9.57;;
15645;SDS011;7922;43.622;1.476;2024-02-21T03:55:48;11.50;;;9.43;;
15645;SDS011;7922;43.622;1.476;2024-02-21T03:58:13;12.47;;;9.30;;
15645;SDS011;7922;43.622;1.476;2024-02-21T04:00:38;14.33;;;9.77;;
15645;SDS011;7922;43.622;1.476;2024-02-21T04:03:03;12.03;;;9.97;;
15645;SDS011;7922;43.622;1.476;2024-02-21T04:05:29;13.07;;;10.13;;
15645;SDS011;7922;43.622;1.476;2024-02-21T04:07:54;11.77;;;9.37;;
15645;SDS011;7922;43.622;1.476;2024-02-21T04:10:19;11.20;;;9.50;;
15645;SDS011;7922;43.622;1.476;2024-02-21T04:12:45;14.87;;;9.90;;
15645;SDS011;7922;43.622;1.476;2024-02-21T04:15:10;13.33;;;9.10;;
15645;SDS011;7922;43.622;1.476;2024-02-21T04:17:36;12.80;;;9.17;;
15645;SDS011;7922;43.622;1.476;2024-02-21T04:20:03;11.20;;;9.30;;
15645;SDS011;7922;43.622;1.476;2024-02-21T04:22:29;12.97;;;9.60;;
15645;SDS011;7922;43.622;1.476;2024-02-21T04:24:54;16.60;;;10.03;;
15645;SDS011;7922;43.622;1.476;2024-02-21T04:27:19;10.67;;;9.53;;
15645;SDS011;7922;43.622;1.476;2024-02-21T04:29:45;10.60;;;8.80;;
15645;SDS011;7922;43.622;1.476;2024-02-21T04:32:10;10.40;;;9.37;;
15645;SDS011;7922;43.622;1.476;2024-02-21T04:34:35;12.87;;;9.27;;
15645;SDS011;7922;43.622;1.476;2024-02-21T04:37:00;12.97;;;9.00;;
15645;SDS011;7922;43.622;1.476;2024-02-21T04:39:26;11.83;;;10.20;;
15645;SDS011;7922;43.622;1.476;2024-02-21T04:41:51;10.40;;;9.23;;
15645;SDS011;7922;43.622;1.476;2024-02-21T04:44:16;13.70;;;9.40;;
15645;SDS011;7922;43.622;1.476;2024-02-21T04:46:42;11.00;;;9.43;;
15645;SDS011;7922;43.622;1.476;2024-02-21T04:49:08;11.30;;;9.33;;
15645;SDS011;7922;43.622;1.476;2024-02-21T04:51:33;9.67;;;8.67;;
15645;SDS011;7922;43.622;1.476;2024-02-21T04:53:58;10.87;;;9.00;;
15645;SDS011;7922;43.622;1.476;2024-02-21T04:56:24;10.20;;;8.60;;
15645;SDS011;7922;43.622;1.476;2024-02-21T04:58:49;13.60;;;8.80;;
15645;SDS011;7922;43.622;1.476;2024-02-21T05:01:14;9.93;;;8.47;;
15645;SDS011;7922;43.622;1.476;2024-02-21T05:03:39;11.40;;;8.63;;
15645;SDS011;7922;43.622;1.476;2024-02-21T05:06:05;9.93;;;8.67;;
15645;SDS011;7922;43.622;1.476;2024-02-21T05:08:30;12.33;;;9.23;;
15645;SDS011;7922;43.622;1.476;2024-02-21T05:10:55;10.80;;;9.47;;
15645;SDS011;7922;43.622;1.476;2024-02-21T05:13:21;10.87;;;9.13;;
15645;SDS011;7922;43.622;1.476;2024-02-21T05:15:46;14.17;;;9.90;;
15645;SDS011;7922;43.622;1.476;2024-02-21T05:18:11;10.60;;;8.73;;
15645;SDS011;7922;43.622;1.476;2024-02-21T05:20:36;11.13;;;9.43;;
15645;SDS011;7922;43.622;1.476;2024-02-21T05:23:02;10.90;;;9.60;;
15645;SDS011;7922;43.622;1.476;2024-02-21T05:25:27;11.20;;;10.07;;
15645;SDS011;7922;43.622;1.476;2024-02-21T05:27:52;10.33;;;9.27;;
15645;SDS011;7922;43.622;1.476;2024-02-21T05:30:18;12.90;;;9.93;;
15645;SDS011;7922;43.622;1.476;2024-02-21T05:32:43;11.47;;;9.20;;
15645;SDS011;7922;43.622;1.476;2024-02-21T05:35:08;12.87;;;9.70;;
15645;SDS011;7922;43.622;1.476;2024-02-21T05:37:33;9.47;;;8.33;;
15645;SDS011;7922;43.622;1.476;2024-02-21T05:39:59;11.00;;;9.37;;
15645;SDS011;7922;43.622;1.476;2024-02-21T05:42:24;11.17;;;8.60;;
15645;SDS011;7922;43.622;1.476;2024-02-21T05:44:49;11.77;;;9.30;;
15645;SDS011;7922;43.622;1.476;2024-02-21T05:47:15;12.03;;;9.30;;
15645;SDS011;7922;43.622;1.476;2024-02-21T05:49:40;11.87;;;9.50;;
15645;SDS011;7922;43.622;1.476;2024-02-21T05:52:05;10.63;;;8.93;;
15645;SDS011;7922;43.622;1.476;2024-02-21T05:54:31;11.20;;;9.63;;
15645;SDS011;7922;43.622;1.476;2024-02-21T05:56:56;14.47;;;10.07;;
15645;SDS011;7922;43.622;1.476;2024-02-21T05:59:21;14.27;;;9.57;;
15645;SDS011;7922;43.622;1.476;2024-02-21T06:01:54;12.33;;;9.00;;
15645;SDS011;7922;43.622;1.476;2024-02-21T06:04:20;12.60;;;9.17;;
15645;SDS011;7922;43.622;1.476;2024-02-21T06:06:45;10.03;;;8.80;;
15645;SDS011;7922;43.622;1.476;2024-02-21T06:09:11;12.63;;;10.33;;
15645;SDS011;7922;43.622;1.476;2024-02-21T06:11:36;13.10;;;9.77;;
15645;SDS011;7922;43.622;1.476;2024-02-21T06:14:01;11.93;;;8.83;;
15645;SDS011;7922;43.622;1.476;2024-02-21T06:16:26;13.07;;;11.17;;
15645;SDS011;7922;43.622;1.476;2024-02-21T06:18:52;10.77;;;9.40;;
15645;SDS011;7922;43.622;1.476;2024-02-21T06:21:17;15.73;;;9.63;;
15645;SDS011;7922;43.622;1.476;2024-02-21T06:23:42;12.00;;;8.57;;
15645;SDS011;7922;43.622;1.476;2024-02-21T06:26:08;14.20;;;9.17;;
15645;SDS011;7922;43.622;1.476;2024-02-21T06:28:33;10.00;;;9.00;;
15645;SDS011;7922;43.622;1.476;2024-02-21T06:30:58;10.00;;;8.77;;
15645;SDS011;7922;43.622;1.476;2024-02-21T06:33:23;10.40;;;9.03;;
15645;SDS011;7922;43.622;1.476;2024-02-21T06:35:49;11.30;;;8.80;;
15645;SDS011;7922;43.622;1.476;2024-02-21T06:38:14;11.07;;;8.50;;
15645;SDS011;7922;43.622;1.476;2024-02-21T06:40:39;13.53;;;9.33;;
15645;SDS011;7922;43.622;1.476;2024-02-21T06:43:05;11.60;;;9.17;;
15645;SDS011;7922;43.622;1.476;2024-02-21T06:45:30;9.70;;;8.60;;
15645;SDS011;7922;43.622;1.476;2024-02-21T06:47:55;13.43;;;9.47;;
15645;SDS011;7922;43.622;1.476;2024-02-21T06:50:21;11.40;;;10.07;;
15645;SDS011;7922;43.622;1.476;2024-02-21T06:52:46;15.57;;;9.57;;
15645;SDS011;7922;43.622;1.476;2024-02-21T06:55:11;11.23;;;9.20;;
15645;SDS011;7922;43.622;1.476;2024-02-21T06:57:37;10.90;;;8.70;;
15645;SDS011;7922;43.622;1.476;2024-02-21T07:00:02;9.83;;;8.80;;
15645;SDS011;7922;43.622;1.476;2024-02-21T07:02:27;11.40;;;9.53;;
15645;SDS011;7922;43.622;1.476;2024-02-21T07:04:53;12.20;;;8.87;;
15645;SDS011;7922;43.622;1.476;2024-02-21T07:07:18;12.90;;;9.53;;
15645;SDS011;7922;43.622;1.476;2024-02-21T07:09:43;10.10;;;8.53;;
15645;SDS011;7922;43.622;1.476;2024-02-21T07:12:08;13.63;;;8.83;;
15645;SDS011;7922;43.622;1.476;2024-02-21T07:14:35;10.53;;;8.63;;
15645;SDS011;7922;43.622;1.476;2024-02-21T07:17:00;10.73;;;8.03;;
15645;SDS011;7922;43.622;1.476;2024-02-21T07:19:26;8.73;;;7.93;;
15645;SDS011;7922;43.622;1.476;2024-02-21T07:21:51;13.47;;;8.23;;
15645;SDS011;7922;43.622;1.476;2024-02-21T07:24:16;15.03;;;8.33;;
15645;SDS011;7922;43.622;1.476;2024-02-21T07:26:44;9.07;;;7.63;;
15645;SDS011;7922;43.622;1.476;2024-02-21T07:29:09;10.90;;;7.37;;
15645;SDS011;7922;43.622;1.476;2024-02-21T07:31:38;8.67;;;7.27;;
15645;SDS011;7922;43.622;1.476;2024-02-21T07:34:07;9.83;;;7.60;;
15645;SDS011;7922;43.622;1.476;2024-02-21T07:36:33;11.67;;;8.17;;
15645;SDS011;7922;43.622;1.476;2024-02-21T07:38:58;11.23;;;7.80;;
15645;SDS011;7922;43.622;1.476;2024-02-21T07:41:24;10.33;;;8.33;;
15645;SDS011;7922;43.622;1.476;2024-02-21T07:43:50;11.93;;;8.00;;
15645;SDS011;7922;43.622;1.476;2024-02-21T07:46:15;13.13;;;7.97;;
15645;SDS011;7922;43.622;1.476;2024-02-21T07:48:40;9.90;;;7.70;;
15645;SDS011;7922;43.622;1.476;2024-02-21T07:51:06;11.23;;;8.27;;
15645;SDS011;7922;43.622;1.476;2024-02-21T07:53:31;11.43;;;8.23;;
15645;SDS011;7922;43.622;1.476;2024-02-21T07:55:56;10.57;;;8.13;;
15645;SDS011;7922;43.622;1.476;2024-02-21T07:58:21;11.20;;;7.83;;
15645;SDS011;7922;43.622;1.476;2024-02-21T08:00:47;10.63;;;8.37;;
15645;SDS011;7922;43.622;1.476;2024-02-21T08:03:12;10.47;;;7.50;;
15645;SDS011;7922;43.622;1.476;2024-02-21T08:05:37;10.93;;;7.13;;
15645;SDS011;7922;43.622;1.476;2024-02-21T08:08:03;11.13;;;7.87;;
15645;SDS011;7922;43.622;1.476;2024-02-21T08:10:29;11.00;;;7.73;;
15645;SDS011;7922;43.622;1.476;2024-02-21T08:12:54;11.20;;;7.47;;
15645;SDS011;7922;43.622;1.476;2024-02-21T08:15:19;9.73;;;7.13;;
15645;SDS011;7922;43.622;1.476;2024-02-21T08:17:44;12.83;;;7.53;;
15645;SDS011;7922;43.622;1.476;2024-02-21T08:20:10;9.13;;;6.60;;
15645;SDS011;7922;43.622;1.476;2024-02-21T08:22:37;7.50;;;6.53;;
15645;SDS011;7922;43.622;1.476;2024-02-21T08:25:02;8.50;;;6.60;;
15645;SDS011;7922;43.622;1.476;2024-02-21T08:27:28;9.07;;;7.07;;
15645;SDS011;7922;43.622;1.476;2024-02-21T08:29:53;8.57;;;7.10;;
15645;SDS011;7922;43.622;1.476;2024-02-21T08:32:19;10.70;;;7.30;;
15645;SDS011;7922;43.622;1.476;2024-02-21T08:34:44;8.43;;;7.10;;
15645;SDS011;7922;43.622;1.476;2024-02-21T08:37:09;9.07;;;6.37;;
15645;SDS011;7922;43.622;1.476;2024-02-21T08:39:34;9.17;;;7.30;;
15645;SDS011;7922;43.622;1.476;2024-02-21T08:42:00;8.57;;;7.00;;
15645;SDS011;7922;43.622;1.476;2024-02-21T08:44:27;9.37;;;6.70;;
15645;SDS011;7922;43.622;1.476;2024-02-21T08:46:52;10.97;;;6.70;;
15645;SDS011;7922;43.622;1.476;2024-02-21T08:49:18;12.57;;;7.37;;
15645;SDS011;7922;43.622;1.476;2024-02-21T08:51:43;9.60;;;6.87;;
15645;SDS011;7922;43.622;1.476;2024-02-21T08:54:08;8.73;;;6.83;;
15645;SDS011;7922;43.622;1.476;2024-02-21T08:56:34;10.67;;;6.63;;
15645;SDS011;7922;43.622;1.476;2024-02-21T08:58:59;10.47;;;7.00;;
15645;SDS011;7922;43.622;1.476;2024-02-21T09:01:25;7.70;;;6.53;;
15645;SDS011;7922;43.622;1.476;2024-02-21T09:03:51;8.07;;;6.60;;
15645;SDS011;7922;43.622;1.476;2024-02-21T09:06:16;9.17;;;6.50;;
15645;SDS011;7922;43.622;1.476;2024-02-21T09:08:41;10.27;;;6.60;;
15645;SDS011;7922;43.622;1.476;2024-02-21T09:11:07;9.47;;;7.33;;
15645;SDS011;7922;43.622;1.476;2024-02-21T09:13:32;10.67;;;6.70;;
15645;SDS011;7922;43.622;1.476;2024-02-21T09:15:57;8.57;;;6.73;;
15645;SDS011;7922;43.622;1.476;2024-02-21T09:18:22;9.90;;;6.43;;
15645;SDS011;7922;43.622;1.476;2024-02-21T09:20:48;10.17;;;6.70;;
15645;SDS011;7922;43.622;1.476;2024-02-21T09:23:13;11.43;;;5.90;;
15645;SDS011;7922;43.622;1.476;2024-02-21T09:25:38;7.97;;;5.60;;
15645;SDS011;7922;43.622;1.476;2024-02-21T09:28:04;9.77;;;6.30;;
15645;SDS011;7922;43.622;1.476;2024-02-21T09:30:29;7.90;;;4.70;;
15645;SDS011;7922;43.622;1.476;2024-02-21T09:32:55;7.90;;;4.80;;
15645;SDS011;7922;43.622;1.476;2024-02-21T09:35:20;9.40;;;5.33;;
15645;SDS011;7922;43.622;1.476;2024-02-21T09:37:45;6.83;;;5.00;;
15645;SDS011;7922;43.622;1.476;2024-02-21T09:40:10;7.93;;;4.73;;
15645;SDS011;7922;43.622;1.476;2024-02-21T09:42:37;7.00;;;4.77;;
15645;SDS011;7922;43.622;1.476;2024-02-21T09:45:03;8.17;;;5.10;;
15645;SDS011;7922;43.622;1.476;2024-02-21T09:50:15;9.77;;;4.03;;
15645;SDS011;7922;43.622;1.476;2024-02-21T09:52:42;4.57;;;3.77;;
15645;SDS011;7922;43.622;1.476;2024-02-21T09:55:09;6.33;;;3.93;;
15645;SDS011;7922;43.622;1.476;2024-02-21T09:57:35;7.27;;;4.27;;
15645;SDS011;7922;43.622;1.476;2024-02-21T10:00:01;3.67;;;3.00;;
15645;SDS011;7922;43.622;1.476;2024-02-21T10:02:27;5.93;;;3.67;;
15645;SDS011;7922;43.622;1.476;2024-02-21T10:04:52;6.73;;;3.43;;
15645;SDS011;7922;43.622;1.476;2024-02-21T10:07:17;5.63;;;3.40;;
15645;SDS011;7922;43.622;1.476;2024-02-21T10:09:43;5.37;;;3.30;;
15645;SDS011;7922;43.622;1.476;2024-02-21T10:12:11;7.63;;;4.10;;
15645;SDS011;7922;43.622;1.476;2024-02-21T10:14:37;5.37;;;3.40;;
15645;SDS011;7922;43.622;1.476;2024-02-21T10:17:03;4.67;;;2.60;;
15645;SDS011;7922;43.622;1.476;2024-02-21T10:19:28;4.13;;;2.10;;
15645;SDS011;7922;43.622;1.476;2024-02-21T10:24:34;2.90;;;2.10;;
15645;SDS011;7922;43.622;1.476;2024-02-21T10:27:04;3.53;;;2.00;;
15645;SDS011;7922;43.622;1.476;2024-02-21T10:29:31;4.17;;;2.10;;
15645;SDS011;7922;43.622;1.476;2024-02-21T10:32:09;3.97;;;2.07;;
15645;SDS011;7922;43.622;1.476;2024-02-21T10:34:38;4.10;;;1.90;;
15645;SDS011;7922;43.622;1.476;2024-02-21T10:37:06;2.77;;;1.60;;
15645;SDS011;7922;43.622;1.476;2024-02-21T10:39:32;2.90;;;2.00;;
15645;SDS011;7922;43.622;1.476;2024-02-21T10:42:00;3.70;;;2.03;;
15645;SDS011;7922;43.622;1.476;2024-02-21T10:44:28;3.27;;;1.90;;
15645;SDS011;7922;43.622;1.476;2024-02-21T10:46:53;5.03;;;2.03;;
15645;SDS011;7922;43.622;1.476;2024-02-21T10:49:24;2.73;;;1.87;;
15645;SDS011;7922;43.622;1.476;2024-02-21T10:51:50;3.13;;;1.70;;
15645;SDS011;7922;43.622;1.476;2024-02-21T10:57:12;2.63;;;1.77;;
15645;SDS011;7922;43.622;1.476;2024-02-21T10:59:39;5.43;;;2.10;;
15645;SDS011;7922;43.622;1.476;2024-02-21T11:02:04;3.67;;;1.87;;
15645;SDS011;7922;43.622;1.476;2024-02-21T11:04:30;4.27;;;1.80;;
15645;SDS011;7922;43.622;1.476;2024-02-21T11:06:56;4.17;;;2.20;;
15645;SDS011;7922;43.622;1.476;2024-02-21T11:09:32;3.97;;;2.00;;
15645;SDS011;7922;43.622;1.476;2024-02-21T11:11:58;3.87;;;1.97;;
15645;SDS011;7922;43.622;1.476;2024-02-21T11:14:26;3.73;;;1.90;;
15645;SDS011;7922;43.622;1.476;2024-02-21T11:16:52;4.47;;;2.13;;
15645;SDS011;7922;43.622;1.476;2024-02-21T11:21:44;3.93;;;1.57;;
15645;SDS011;7922;43.622;1.476;2024-02-21T11:24:09;4.30;;;1.60;;
15645;SDS011;7922;43.622;1.476;2024-02-21T11:26:36;2.80;;;1.60;;
15645;SDS011;7922;43.622;1.476;2024-02-21T11:29:03;2.90;;;1.57;;
15645;SDS011;7922;43.622;1.476;2024-02-21T11:31:38;2.00;;;1.70;;
15645;SDS011;7922;43.622;1.476;2024-02-21T11:34:10;3.63;;;1.70;;
15645;SDS011;7922;43.622;1.476;2024-02-21T11:36:36;1.87;;;1.33;;
15645;SDS011;7922;43.622;1.476;2024-02-21T11:39:11;3.57;;;1.37;;
15645;SDS011;7922;43.622;1.476;2024-02-21T11:41:36;3.57;;;1.60;;
15645;SDS011;7922;43.622;1.476;2024-02-21T11:44:01;2.80;;;1.50;;
15645;SDS011;7922;43.622;1.476;2024-02-21T11:46:26;4.20;;;1.47;;
15645;SDS011;7922;43.622;1.476;2024-02-21T11:48:52;1.87;;;1.43;;
15645;SDS011;7922;43.622;1.476;2024-02-21T11:51:26;3.43;;;1.50;;
15645;SDS011;7922;43.622;1.476;2024-02-21T11:53:54;1.97;;;1.43;;
15645;SDS011;7922;43.622;1.476;2024-02-21T11:56:19;3.07;;;1.40;;
15645;SDS011;7922;43.622;1.476;2024-02-21T11:58:48;2.80;;;1.60;;
15645;SDS011;7922;43.622;1.476;2024-02-21T12:01:14;1.97;;;1.30;;
15645;SDS011;7922;43.622;1.476;2024-02-21T12:03:39;2.27;;;1.40;;
15645;SDS011;7922;43.622;1.476;2024-02-21T12:06:05;5.03;;;2.00;;
15645;SDS011;7922;43.622;1.476;2024-02-21T12:08:41;2.67;;;1.60;;
15645;SDS011;7922;43.622;1.476;2024-02-21T12:11:19;3.43;;;1.20;;
15645;SDS011;7922;43.622;1.476;2024-02-21T12:13:45;2.57;;;1.83;;
15645;SDS011;7922;43.622;1.476;2024-02-21T12:16:11;3.33;;;1.70;;
15645;SDS011;7922;43.622;1.476;2024-02-21T12:18:36;3.20;;;1.80;;
15645;SDS011;7922;43.622;1.476;2024-02-21T12:21:01;3.23;;;1.80;;
15645;SDS011;7922;43.622;1.476;2024-02-21T12:23:27;2.30;;;1.80;;
15645;SDS011;7922;43.622;1.476;2024-02-21T12:25:52;2.93;;;1.80;;
15645;SDS011;7922;43.622;1.476;2024-02-21T12:28:17;3.43;;;1.40;;
15645;SDS011;7922;43.622;1.476;2024-02-21T12:30:43;3.10;;;1.60;;
15645;SDS011;7922;43.622;1.476;2024-02-21T12:33:08;3.87;;;1.73;;
15645;SDS011;7922;43.622;1.476;2024-02-21T12:35:33;3.93;;;1.80;;
15645;SDS011;7922;43.622;1.476;2024-02-21T12:37:58;2.83;;;1.50;;
15645;SDS011;7922;43.622;1.476;2024-02-21T12:40:24;2.63;;;1.70;;
15645;SDS011;7922;43.622;1.476;2024-02-21T12:42:49;2.63;;;1.70;;
15645;SDS011;7922;43.622;1.476;2024-02-21T12:45:14;2.97;;;1.67;;
15645;SDS011;7922;43.622;1.476;2024-02-21T12:47:39;2.93;;;1.60;;
15645;SDS011;7922;43.622;1.476;2024-02-21T12:50:05;2.80;;;1.50;;
15645;SDS011;7922;43.622;1.476;2024-02-21T12:52:30;1.90;;;1.43;;
15645;SDS011;7922;43.622;1.476;2024-02-21T12:54:56;1.80;;;1.40;;
15645;SDS011;7922;43.622;1.476;2024-02-21T12:57:21;2.53;;;1.63;;
15645;SDS011;7922;43.622;1.476;2024-02-21T12:59:46;3.00;;;1.97;;
15645;SDS011;7922;43.622;1.476;2024-02-21T13:02:11;2.37;;;1.27;;
15645;SDS011;7922;43.622;1.476;2024-02-21T13:04:37;2.80;;;1.47;;
15645;SDS011;7922;43.622;1.476;2024-02-21T13:07:02;3.67;;;1.77;;
15645;SDS011;7922;43.622;1.476;2024-02-21T13:09:27;2.63;;;1.30;;
15645;SDS011;7922;43.622;1.476;2024-02-21T13:11:52;4.27;;;1.80;;
15645;SDS011;7922;43.622;1.476;2024-02-21T13:14:18;2.90;;;1.47;;
15645;SDS011;7922;43.622;1.476;2024-02-21T13:16:43;2.53;;;1.57;;
15645;SDS011;7922;43.622;1.476;2024-02-21T13:19:08;2.13;;;1.50;;
15645;SDS011;7922;43.622;1.476;2024-02-21T13:21:34;2.63;;;1.40;;
15645;SDS011;7922;43.622;1.476;2024-02-21T13:24:00;2.60;;;1.20;;
15645;SDS011;7922;43.622;1.476;2024-02-21T13:26:25;2.40;;;1.33;;
15645;SDS011;7922;43.622;1.476;2024-02-21T13:28:51;3.37;;;1.77;;
15645;SDS011;7922;43.622;1.476;2024-02-21T13:31:16;3.00;;;1.33;;
15645;SDS011;7922;43.622;1.476;2024-02-21T13:33:41;1.97;;;1.27;;
15645;SDS011;7922;43.622;1.476;2024-02-21T13:36:07;3.07;;;1.30;;
15645;SDS011;7922;43.622;1.476;2024-02-21T13:38:32;2.00;;;1.70;;
15645;SDS011;7922;43.622;1.476;2024-02-21T13:40:57;2.20;;;1.50;;
15645;SDS011;7922;43.622;1.476;2024-02-21T13:43:23;4.33;;;1.47;;
15645;SDS011;7922;43.622;1.476;2024-02-21T13:46:01;3.93;;;1.30;;
15645;SDS011;7922;43.622;1.476;2024-02-21T13:48:27;2.97;;;1.50;;
15645;SDS011;7922;43.622;1.476;2024-02-21T13:50:52;1.97;;;1.47;;
15645;SDS011;7922;43.622;1.476;2024-02-21T13:53:17;2.50;;;1.30;;
15645;SDS011;7922;43.622;1.476;2024-02-21T13:55:43;2.53;;;1.30;;
15645;SDS011;7922;43.622;1.476;2024-02-21T13:58:08;2.83;;;1.43;;
15645;SDS011;7922;43.622;1.476;2024-02-21T14:00:33;1.83;;;1.40;;
15645;SDS011;7922;43.622;1.476;2024-02-21T14:02:58;3.07;;;1.50;;
15645;SDS011;7922;43.622;1.476;2024-02-21T14:05:24;2.57;;;1.50;;
15645;SDS011;7922;43.622;1.476;2024-02-21T14:07:49;2.60;;;2.00;;
15645;SDS011;7922;43.622;1.476;2024-02-21T14:10:14;2.10;;;1.60;;
15645;SDS011;7922;43.622;1.476;2024-02-21T14:12:39;4.77;;;3.23;;
15645;SDS011;7922;43.622;1.476;2024-02-21T14:15:05;2.13;;;1.40;;
15645;SDS011;7922;43.622;1.476;2024-02-21T14:17:30;3.60;;;1.60;;
15645;SDS011;7922;43.622;1.476;2024-02-21T14:19:56;2.03;;;1.40;;
15645;SDS011;7922;43.622;1.476;2024-02-21T14:22:21;3.90;;;1.60;;
15645;SDS011;7922;43.622;1.476;2024-02-21T14:24:46;2.90;;;1.50;;
15645;SDS011;7922;43.622;1.476;2024-02-21T14:27:11;4.17;;;1.80;;
15645;SDS011;7922;43.622;1.476;2024-02-21T14:29:37;3.33;;;1.90;;
15645;SDS011;7922;43.622;1.476;2024-02-21T14:32:02;3.40;;;1.90;;
15645;SDS011;7922;43.622;1.476;2024-02-21T14:34:28;3.13;;;1.47;;
15645;SDS011;7922;43.622;1.476;2024-02-21T14:36:53;2.23;;;1.47;;
15645;SDS011;7922;43.622;1.476;2024-02-21T14:39:19;3.37;;;1.40;;
15645;SDS011;7922;43.622;1.476;2024-02-21T14:41:44;3.63;;;1.70;;
15645;SDS011;7922;43.622;1.476;2024-02-21T14:44:09;2.07;;;1.20;;
15645;SDS011;7922;43.622;1.476;2024-02-21T14:46:34;2.43;;;1.43;;
15645;SDS011;7922;43.622;1.476;2024-02-21T14:49:01;3.13;;;1.60;;
15645;SDS011;7922;43.622;1.476;2024-02-21T14:51:26;3.13;;;1.50;;